Time;durP1;ratioP1;P1;durP2;ratioP2;P2;SDS_P1;SDS_P2;PMS_P1;PMS_P2;Temp;Humidity;BMP_temperature;BMP_pressure;BME280_temperature;BME280_humidity;BME280_pressure;Samples;Min_cycle;Max_cycle;Signal;HPM_P1;HPM_P2
2023/01/09 00:01:29;;;;;;;17.02;13.52;;;2.90;99.90;;;;;;4974651;28;20430;-78
2023/01/09 00:03:57;;;;;;;6.93;6.25;;;2.90;99.90;;;;;;4975181;28;20398;-78
2023/01/09 00:06:24;;;;;;;11.75;7.70;;;2.90;99.90;;;;;;4974966;28;20515;-78
2023/01/09 00:08:52;;;;;;;9.38;7.43;;;2.90;99.90;;;;;;4973613;28;20035;-78
2023/01/09 00:11:20;;;;;;;7.43;6.13;;;2.90;99.90;;;;;;4955388;29;20404;-78
2023/01/09 00:13:48;;;;;;;8.30;6.45;;;2.80;99.90;;;;;;4972000;28;20398;-78
2023/01/09 00:16:22;;;;;;;9.82;8.52;;;2.80;99.90;;;;;;4975973;28;20384;-77
2023/01/09 00:18:49;;;;;;;6.55;5.80;;;2.70;99.90;;;;;;4976592;28;20082;-78
2023/01/09 00:21:57;;;;;;;24.60;17.48;;;2.80;99.90;;;;;;4971974;28;20051;-78
2023/01/09 00:24:27;;;;;;;8.57;6.70;;;2.80;99.90;;;;;;4956611;29;20042;-78
2023/01/09 00:26:55;;;;;;;7.22;6.47;;;2.80;99.90;;;;;;4958860;28;20047;-78
2023/01/09 00:29:23;;;;;;;8.68;6.30;;;2.80;99.90;;;;;;4976954;28;20046;-78
2023/01/09 00:31:50;;;;;;;11.10;8.82;;;2.70;99.90;;;;;;4977364;28;20442;-78
2023/01/09 00:34:18;;;;;;;13.65;9.27;;;2.70;99.90;;;;;;4960550;28;20410;-78
2023/01/09 00:36:47;;;;;;;7.97;7.25;;;2.80;99.90;;;;;;4976741;28;20384;-78
2023/01/09 00:39:15;;;;;;;10.05;8.95;;;2.80;99.90;;;;;;4978520;28;20055;-78
2023/01/09 00:41:47;;;;;;;14.75;9.32;;;2.80;99.90;;;;;;4994659;28;20042;-78
2023/01/09 00:44:23;;;;;;;9.93;7.95;;;2.80;99.90;;;;;;4982776;28;20041;-78
2023/01/09 00:46:56;;;;;;;9.60;8.70;;;2.90;99.90;;;;;;4982760;28;20033;-78
2023/01/09 00:49:27;;;;;;;8.52;5.78;;;2.80;99.90;;;;;;4979165;28;20055;-78
2023/01/09 00:51:55;;;;;;;8.57;7.53;;;2.80;99.90;;;;;;4997495;28;20031;-78
2023/01/09 00:54:22;;;;;;;12.40;9.18;;;2.80;99.90;;;;;;4998204;28;20043;-78
2023/01/09 00:56:50;;;;;;;7.55;6.78;;;2.90;99.90;;;;;;4999867;28;20049;-78
2023/01/09 00:59:18;;;;;;;8.35;7.38;;;2.90;99.90;;;;;;5018912;28;20031;-78
2023/01/09 01:01:49;;;;;;;7.45;6.75;;;2.90;99.90;;;;;;5017378;28;20026;-78
2023/01/09 01:09:51;;;;;;;15.25;9.57;;;2.90;99.90;;;;;;4977562;28;20057;-78
2023/01/09 01:12:19;;;;;;;10.23;9.13;;;2.80;99.90;;;;;;4978643;28;20043;-78
2023/01/09 01:14:48;;;;;;;9.52;7.10;;;2.70;99.90;;;;;;4980045;28;20039;-78
2023/01/09 01:17:15;;;;;;;6.95;5.30;;;2.80;99.90;;;;;;4997862;28;20055;-78
2023/01/09 01:19:43;;;;;;;8.10;5.53;;;2.90;99.90;;;;;;4998291;28;20055;-78
2023/01/09 01:22:11;;;;;;;8.15;4.53;;;3.10;99.90;;;;;;4997781;28;20056;-78
2023/01/09 01:24:38;;;;;;;4.60;4.15;;;3.20;99.90;;;;;;4988046;28;20035;-78
2023/01/09 01:27:06;;;;;;;6.53;5.25;;;3.20;99.90;;;;;;4998322;28;20035;-78
2023/01/09 01:29:34;;;;;;;5.63;4.93;;;3.30;99.90;;;;;;4978420;28;20041;-78
2023/01/09 01:32:01;;;;;;;3.60;3.30;;;3.30;99.90;;;;;;4996871;28;20034;-78
2023/01/09 01:34:29;;;;;;;4.95;4.40;;;3.30;99.90;;;;;;4997814;28;20049;-78
2023/01/09 01:36:58;;;;;;;4.75;4.30;;;3.30;99.90;;;;;;4971640;28;20041;-78
2023/01/09 01:39:26;;;;;;;4.60;3.47;;;3.30;99.90;;;;;;4979013;28;20049;-78
2023/01/09 01:41:55;;;;;;;5.75;4.47;;;3.30;99.90;;;;;;5015842;28;20041;-78
2023/01/09 01:44:57;;;;;;;4.97;4.55;;;3.30;99.90;;;;;;5016565;28;20054;-79
2023/01/09 01:47:31;;;;;;;4.30;3.60;;;3.30;99.90;;;;;;5011537;28;20032;-78
2023/01/09 01:50:03;;;;;;;8.70;4.20;;;3.40;99.90;;;;;;5000712;28;20049;-78
2023/01/09 01:52:32;;;;;;;4.55;3.80;;;3.40;99.90;;;;;;4999954;28;20056;-78
2023/01/09 01:55:05;;;;;;;3.92;3.58;;;3.40;99.90;;;;;;5000898;28;20046;-78
2023/01/09 01:57:34;;;;;;;4.85;4.20;;;3.40;99.90;;;;;;5017339;28;20026;-78
2023/01/09 02:00:03;;;;;;;5.93;4.53;;;3.40;99.90;;;;;;5014789;28;20043;-78
2023/01/09 02:02:33;;;;;;;4.80;4.00;;;3.40;99.90;;;;;;4985559;28;20054;-82
2023/01/09 02:05:04;;;;;;;4.10;3.70;;;3.40;99.90;;;;;;4972829;28;20047;-82
2023/01/09 02:07:32;;;;;;;6.32;4.10;;;3.40;99.90;;;;;;4989461;28;20050;-82
2023/01/09 02:10:00;;;;;;;4.38;4.03;;;3.50;99.90;;;;;;4990207;28;20502;-82
2023/01/09 02:12:29;;;;;;;4.18;3.88;;;3.50;99.90;;;;;;4957421;28;20049;-82
2023/01/09 02:15:07;;;;;;;3.70;3.40;;;3.50;99.90;;;;;;4991356;28;20058;-82
2023/01/09 02:17:34;;;;;;;6.25;4.72;;;3.50;99.90;;;;;;4988049;28;20035;-82
2023/01/09 02:20:26;;;;;;;4.05;3.75;;;3.50;99.90;;;;;;4990236;28;20508;-82
2023/01/09 02:23:28;;;;;;;5.57;5.07;;;3.60;99.90;;;;;;4954240;28;20070;-82
2023/01/09 02:26:15;;;;;;;4.60;3.88;;;3.70;99.90;;;;;;4987196;28;20049;-82
2023/01/09 02:29:13;;;;;;;6.20;4.78;;;3.80;99.90;;;;;;4953946;28;20402;-83
2023/01/09 02:32:04;;;;;;;8.32;5.65;;;3.90;99.90;;;;;;4984670;28;20434;-83
2023/01/09 02:34:54;;;;;;;5.17;4.67;;;3.90;99.90;;;;;;4987485;28;20057;-83
2023/01/09 02:37:35;;;;;;;9.07;4.18;;;3.80;99.90;;;;;;4975275;28;20463;-83
2023/01/09 02:40:10;;;;;;;6.47;4.00;;;3.70;99.90;;;;;;4991830;28;20045;-82
2023/01/09 02:42:40;;;;;;;4.03;3.63;;;3.70;99.90;;;;;;5010698;28;20050;-82
2023/01/09 02:45:08;;;;;;;6.27;5.10;;;3.70;99.90;;;;;;5008846;28;20069;-83
2023/01/09 02:47:44;;;;;;;4.85;3.63;;;3.70;99.90;;;;;;4991284;28;20320;-83
2023/01/09 02:50:17;;;;;;;8.10;6.00;;;3.80;99.90;;;;;;5013637;28;20041;-82
2023/01/09 02:53:18;;;;;;;4.10;3.72;;;3.80;99.90;;;;;;5028514;28;20074;-83
2023/01/09 02:56:02;;;;;;;5.10;4.60;;;3.90;99.90;;;;;;5028615;28;20049;-83
2023/01/09 02:58:50;;;;;;;4.40;4.05;;;4.10;99.90;;;;;;5028849;28;20058;-82
2023/01/09 03:01:52;;;;;;;5.82;4.15;;;4.20;99.90;;;;;;5012059;28;20050;-83
2023/01/09 03:04:45;;;;;;;4.13;3.63;;;4.20;99.90;;;;;;4993505;28;20054;-82
2023/01/09 03:07:32;;;;;;;4.13;3.58;;;4.20;99.90;;;;;;4987796;28;20050;-83
2023/01/09 03:10:08;;;;;;;4.30;3.85;;;4.10;99.90;;;;;;4971661;28;20528;-83
2023/01/09 03:12:37;;;;;;;6.28;3.17;;;4.10;99.90;;;;;;4988678;28;20042;-82
2023/01/09 03:15:10;;;;;;;8.48;5.22;;;4.00;99.90;;;;;;4973597;28;20050;-81
2023/01/09 03:17:42;;;;;;;3.22;3.03;;;3.90;99.90;;;;;;4989174;28;20055;-82
2023/01/09 03:20:14;;;;;;;5.10;4.38;;;3.90;99.90;;;;;;4990112;28;20538;-81
2023/01/09 03:22:54;;;;;;;4.95;4.50;;;3.80;99.90;;;;;;4988462;28;20055;-82
2023/01/09 03:25:27;;;;;;;4.32;3.95;;;3.80;99.90;;;;;;4990149;28;20603;-81
2023/01/09 03:28:01;;;;;;;4.60;3.97;;;3.80;99.90;;;;;;4972984;28;20038;-81
2023/01/09 03:30:31;;;;;;;9.02;3.70;;;3.80;99.90;;;;;;4983622;28;20062;-82
2023/01/09 03:32:59;;;;;;;6.53;4.13;;;3.90;99.90;;;;;;4990856;28;20050;-82
2023/01/09 03:35:27;;;;;;;3.53;3.22;;;3.90;99.90;;;;;;5013206;28;20054;-82
2023/01/09 03:37:55;;;;;;;3.40;2.90;;;3.80;99.90;;;;;;4995153;28;20046;-82
2023/01/09 03:40:22;;;;;;;4.07;3.67;;;3.60;99.90;;;;;;4981977;28;20403;-82
2023/01/09 03:42:50;;;;;;;4.15;3.72;;;3.60;99.90;;;;;;4992005;28;20045;-82
2023/01/09 03:45:18;;;;;;;4.72;3.75;;;3.60;99.90;;;;;;4976423;28;20050;-82
2023/01/09 03:47:45;;;;;;;4.13;3.75;;;3.50;99.90;;;;;;4992749;28;20425;-82
2023/01/09 03:50:14;;;;;;;3.25;3.05;;;3.50;99.90;;;;;;4992951;28;20054;-82
2023/01/09 03:52:42;;;;;;;3.53;3.20;;;3.50;99.90;;;;;;4975117;28;20510;-82
2023/01/09 03:55:09;;;;;;;2.80;2.60;;;3.50;99.90;;;;;;4991673;28;20498;-82
2023/01/09 03:57:37;;;;;;;3.78;3.30;;;3.60;99.90;;;;;;4959779;28;20042;-82
2023/01/09 04:00:05;;;;;;;2.58;2.40;;;3.70;99.90;;;;;;4975502;28;20497;-82
2023/01/09 04:02:38;;;;;;;3.22;2.67;;;3.90;99.90;;;;;;4991800;28;20414;-82
2023/01/09 04:05:07;;;;;;;2.83;2.63;;;4.00;99.90;;;;;;4992840;28;20054;-82
2023/01/09 04:07:34;;;;;;;3.92;3.63;;;4.10;99.90;;;;;;4971739;28;20423;-82
2023/01/09 04:10:02;;;;;;;2.80;2.60;;;4.20;99.90;;;;;;4958653;28;20065;-82
2023/01/09 04:12:30;;;;;;;4.35;3.95;;;4.10;99.90;;;;;;4993379;28;20042;-81
2023/01/09 04:14:58;;;;;;;3.70;3.30;;;4.10;99.90;;;;;;4974766;28;20139;-81
2023/01/09 04:17:25;;;;;;;4.45;4.00;;;3.90;99.90;;;;;;4992807;28;20403;-82
2023/01/09 04:19:53;;;;;;;4.97;4.57;;;3.70;99.90;;;;;;4992196;28;20039;-81
2023/01/09 04:22:21;;;;;;;4.20;3.85;;;3.60;99.90;;;;;;4992096;28;20053;-81
2023/01/09 04:24:48;;;;;;;4.25;3.85;;;3.50;99.90;;;;;;4972193;28;20136;-82
2023/01/09 04:27:16;;;;;;;4.05;3.65;;;3.40;99.90;;;;;;4972494;28;20434;-82
2023/01/09 04:29:44;;;;;;;6.30;4.10;;;3.40;99.90;;;;;;4989207;28;20421;-82
2023/01/09 04:32:13;;;;;;;4.57;4.13;;;3.30;99.90;;;;;;4994890;28;20049;-82
2023/01/09 04:34:41;;;;;;;3.65;3.28;;;3.30;99.90;;;;;;4995084;28;20405;-82
2023/01/09 04:37:09;;;;;;;3.28;2.70;;;3.30;99.90;;;;;;4992778;28;20046;-82
2023/01/09 04:39:36;;;;;;;3.13;2.92;;;3.40;99.90;;;;;;4993927;28;20042;-81
2023/01/09 04:42:04;;;;;;;3.67;2.22;;;3.40;99.90;;;;;;5011948;28;20050;-81
2023/01/09 04:44:32;;;;;;;2.78;2.58;;;3.60;99.90;;;;;;4993649;28;20080;-82
2023/01/09 04:46:59;;;;;;;2.65;2.45;;;3.90;99.90;;;;;;5010830;28;20050;-82
2023/01/09 04:49:27;;;;;;;3.80;3.50;;;4.20;99.90;;;;;;5010990;28;20069;-82
2023/01/09 04:51:55;;;;;;;4.72;4.03;;;4.50;99.90;;;;;;4994160;28;20046;-81
2023/01/09 04:54:23;;;;;;;5.35;3.53;;;4.50;99.90;;;;;;4991169;28;20416;-82
2023/01/09 04:56:50;;;;;;;4.65;4.35;;;4.40;99.90;;;;;;5031279;28;20038;-81
2023/01/09 04:59:18;;;;;;;3.10;2.88;;;4.30;99.90;;;;;;5032176;28;20072;-81
2023/01/09 05:01:50;;;;;;;3.97;3.17;;;4.20;99.90;;;;;;5013221;28;20422;-81
2023/01/09 05:04:18;;;;;;;3.72;3.47;;;4.20;99.90;;;;;;5016280;28;20042;-82
2023/01/09 05:06:46;;;;;;;4.38;3.88;;;4.10;99.90;;;;;;5011396;28;20391;-82
2023/01/09 05:09:14;;;;;;;4.20;3.58;;;4.00;99.90;;;;;;4991856;28;20054;-81
2023/01/09 05:11:41;;;;;;;2.95;2.67;;;4.00;99.90;;;;;;4995480;28;20432;-82
2023/01/09 05:14:09;;;;;;;4.05;3.65;;;4.10;99.90;;;;;;4994307;28;20513;-81
2023/01/09 05:16:37;;;;;;;5.15;4.03;;;4.30;99.90;;;;;;4993739;28;20050;-82
2023/01/09 05:19:05;;;;;;;3.55;3.25;;;4.30;99.90;;;;;;5011095;28;20413;-81
2023/01/09 05:21:32;;;;;;;3.22;3.00;;;4.40;99.90;;;;;;4977152;28;20753;-81
2023/01/09 05:24:00;;;;;;;3.55;3.35;;;4.60;99.90;;;;;;4991319;28;20486;-82
2023/01/09 05:26:27;;;;;;;2.47;2.28;;;4.60;99.90;;;;;;5010985;28;20041;-82
2023/01/09 05:28:55;;;;;;;1.88;1.60;;;4.70;99.90;;;;;;5010992;28;20049;-83
2023/01/09 05:31:24;;;;;;;2.03;1.77;;;5.10;99.90;;;;;;4997179;28;20058;-83
2023/01/09 05:33:53;;;;;;;1.90;1.80;;;5.80;99.90;;;;;;4972975;28;20046;-82
2023/01/09 05:36:20;;;;;;;1.90;1.35;;;5.90;99.90;;;;;;4988507;28;20409;-82
2023/01/09 05:38:48;;;;;;;0.93;0.93;;;6.10;99.90;;;;;;5005777;28;20054;-83
2023/01/09 05:41:16;;;;;;;1.35;1.27;;;6.00;99.90;;;;;;4959801;28;20050;-83
2023/01/09 05:43:44;;;;;;;1.52;1.42;;;6.10;99.90;;;;;;4991489;28;20047;-83
2023/01/09 05:46:13;;;;;;;1.50;1.40;;;6.00;99.90;;;;;;4990786;28;20042;-83
2023/01/09 05:48:41;;;;;;;1.90;1.73;;;6.00;99.90;;;;;;4970150;28;20418;-83
2023/01/09 05:51:11;;;;;;;1.30;1.30;;;6.00;99.90;;;;;;4983740;28;20481;-84
2023/01/09 05:53:38;;;;;;;1.20;1.10;;;6.10;99.90;;;;;;4969184;28;20082;-83
2023/01/09 05:56:07;;;;;;;1.30;1.20;;;6.00;99.90;;;;;;4988004;28;20045;-83
2023/01/09 05:58:38;;;;;;;1.30;1.20;;;6.00;99.90;;;;;;5009503;28;20049;-83
2023/01/09 06:01:06;;;;;;;0.90;0.90;;;5.90;99.90;;;;;;5011341;28;20417;-82
2023/01/09 06:03:34;;;;;;;1.17;1.17;;;5.80;99.90;;;;;;4999350;28;20069;-82
2023/01/09 06:06:02;;;;;;;1.13;1.08;;;5.80;99.90;;;;;;4992371;28;20057;-83
2023/01/09 06:08:30;;;;;;;0.85;0.85;;;5.80;99.90;;;;;;4970181;28;20055;-82
2023/01/09 06:10:57;;;;;;;1.02;1.02;;;5.80;99.90;;;;;;4972469;28;20050;-83
2023/01/09 06:13:25;;;;;;;0.98;0.98;;;5.70;99.90;;;;;;4991703;28;20676;-82
2023/01/09 06:15:53;;;;;;;1.10;1.10;;;5.80;99.90;;;;;;4975386;28;20046;-82
2023/01/09 06:18:20;;;;;;;1.17;1.08;;;5.80;99.90;;;;;;5011194;28;20064;-82
2023/01/09 06:20:48;;;;;;;1.95;1.05;;;5.70;99.90;;;;;;4992512;28;20513;-83
2023/01/09 06:23:15;;;;;;;0.80;0.80;;;5.80;99.90;;;;;;5005535;28;20046;-82
2023/01/09 06:25:43;;;;;;;1.08;0.98;;;5.70;99.90;;;;;;4970296;28;20557;-83
2023/01/09 06:28:11;;;;;;;0.63;0.63;;;5.70;99.90;;;;;;4969975;28;20046;-83
2023/01/09 06:30:38;;;;;;;0.85;0.85;;;5.70;99.90;;;;;;4978092;28;20054;-82
2023/01/09 06:33:06;;;;;;;1.10;1.10;;;5.60;99.90;;;;;;4976718;28;20047;-82
2023/01/09 06:35:33;;;;;;;0.70;0.70;;;5.60;99.90;;;;;;4991526;28;20038;-83
2023/01/09 06:38:02;;;;;;;1.42;1.42;;;5.70;99.90;;;;;;4989011;28;20045;-83
2023/01/09 06:40:30;;;;;;;0.80;0.80;;;5.60;99.90;;;;;;4957858;28;20034;-83
2023/01/09 06:42:58;;;;;;;8.27;0.82;;;5.60;99.90;;;;;;4992505;28;20054;-83
2023/01/09 06:45:27;;;;;;;0.80;0.80;;;5.60;99.90;;;;;;4992362;28;20522;-83
2023/01/09 06:47:55;;;;;;;0.93;0.93;;;5.60;99.90;;;;;;4973581;28;20394;-83
2023/01/09 06:50:22;;;;;;;0.90;0.90;;;5.60;99.90;;;;;;4972636;28;20082;-83
2023/01/09 06:52:50;;;;;;;0.70;0.70;;;5.50;99.90;;;;;;4987965;28;20529;-82
2023/01/09 06:55:17;;;;;;;0.80;0.80;;;5.50;99.90;;;;;;4990484;28;20050;-82
2023/01/09 06:57:45;;;;;;;0.90;0.90;;;5.60;99.90;;;;;;4972726;28;20842;-83
2023/01/09 07:00:13;;;;;;;0.70;0.70;;;5.70;99.90;;;;;;4990659;28;20401;-83
2023/01/09 07:02:41;;;;;;;0.60;0.60;;;5.60;99.90;;;;;;4980227;28;20061;-83
2023/01/09 07:05:10;;;;;;;0.70;0.70;;;5.50;99.90;;;;;;4992101;28;20047;-83
2023/01/09 07:07:40;;;;;;;0.60;0.60;;;5.50;99.90;;;;;;4988152;28;20050;-81
2023/01/09 07:10:09;;;;;;;0.90;0.90;;;5.50;99.90;;;;;;4992755;28;20058;-83
2023/01/09 07:12:37;;;;;;;0.80;0.80;;;5.50;99.90;;;;;;4994420;28;20118;-82
2023/01/09 07:15:07;;;;;;;0.60;0.60;;;5.60;99.90;;;;;;4991047;28;20054;-82
2023/01/09 07:17:35;;;;;;;0.70;0.70;;;5.50;99.90;;;;;;4994447;28;20065;-82
2023/01/09 07:20:04;;;;;;;0.70;0.70;;;5.40;99.90;;;;;;4990714;28;20042;-81
2023/01/09 07:22:31;;;;;;;0.82;0.80;;;5.60;99.90;;;;;;4993037;28;20101;-82
2023/01/09 07:24:59;;;;;;;0.60;0.60;;;5.60;99.90;;;;;;4993493;28;20457;-80
2023/01/09 07:27:27;;;;;;;1.10;0.75;;;5.60;99.90;;;;;;4963425;28;20050;-82
2023/01/09 07:29:55;;;;;;;0.63;0.63;;;5.50;99.90;;;;;;4993677;28;20058;-82
2023/01/09 07:32:23;;;;;;;0.70;0.70;;;5.50;99.90;;;;;;4970320;28;20493;-82
2023/01/09 07:34:51;;;;;;;0.93;0.93;;;5.60;99.90;;;;;;4988900;28;20492;-81
2023/01/09 07:37:20;;;;;;;0.60;0.60;;;5.60;99.90;;;;;;4998844;28;20046;-81
2023/01/09 07:39:47;;;;;;;0.90;0.90;;;5.60;99.90;;;;;;5007656;28;20042;-82
2023/01/09 07:42:15;;;;;;;0.80;0.80;;;5.60;99.90;;;;;;4993899;28;20054;-83
2023/01/09 07:44:43;;;;;;;0.70;0.70;;;5.60;99.90;;;;;;4994032;28;20046;-83
2023/01/09 07:47:11;;;;;;;1.00;0.98;;;5.60;99.90;;;;;;4977250;28;20077;-83
2023/01/09 07:49:39;;;;;;;0.82;0.82;;;5.60;99.90;;;;;;4976914;28;20054;-86
2023/01/09 07:52:07;;;;;;;1.08;1.08;;;5.60;99.90;;;;;;4994149;28;20422;-89
2023/01/09 07:54:35;;;;;;;0.80;0.80;;;5.60;99.90;;;;;;4978249;28;20050;-83
2023/01/09 07:57:03;;;;;;;0.70;0.70;;;5.70;99.90;;;;;;4994112;28;20054;-83
2023/01/09 07:59:31;;;;;;;0.80;0.80;;;5.60;99.90;;;;;;4945685;28;20050;-90
2023/01/09 08:02:01;;;;;;;0.80;0.80;;;5.60;99.90;;;;;;4979344;28;20043;-84
2023/01/09 08:04:28;;;;;;;0.60;0.60;;;5.60;99.90;;;;;;4979682;28;20046;-84
2023/01/09 08:06:56;;;;;;;0.75;0.75;;;5.60;99.90;;;;;;4961314;28;20069;-88
2023/01/09 08:09:24;;;;;;;1.27;1.27;;;5.60;99.90;;;;;;4975838;28;20053;-89
2023/01/09 08:11:51;;;;;;;0.80;0.80;;;5.70;99.90;;;;;;4994773;28;20057;-87
2023/01/09 08:14:19;;;;;;;0.80;0.80;;;5.60;99.90;;;;;;4977786;28;20054;-88
2023/01/09 08:16:47;;;;;;;0.70;0.70;;;5.60;99.90;;;;;;4977884;28;20069;-92
2023/01/09 08:19:15;;;;;;;0.60;0.60;;;5.50;99.90;;;;;;4978213;28;20050;-87
2023/01/09 08:21:44;;;;;;;1.40;0.93;;;5.50;99.90;;;;;;4976413;28;20058;-87
2023/01/09 08:24:12;;;;;;;0.80;0.80;;;5.40;99.90;;;;;;4974173;28;20123;-87
2023/01/09 08:26:40;;;;;;;1.35;1.25;;;5.30;99.90;;;;;;4992734;28;20061;-90
2023/01/09 08:29:09;;;;;;;0.98;0.98;;;5.30;99.90;;;;;;4985649;28;20058;-87
2023/01/09 08:31:37;;;;;;;0.80;0.80;;;5.30;99.90;;;;;;4997693;28;20065;-86
2023/01/09 08:34:05;;;;;;;1.00;1.00;;;5.30;99.90;;;;;;4970230;28;20065;-89
2023/01/09 08:36:32;;;;;;;0.77;0.77;;;5.20;99.90;;;;;;4990129;28;20053;-87
2023/01/09 08:39:00;;;;;;;0.85;0.85;;;5.10;99.90;;;;;;4971967;28;20059;-86
2023/01/09 08:47:05;;;;;;;0.95;0.95;;;5.20;99.90;;;;;;4981322;28;20065;-87
2023/01/09 08:49:38;;;;;;;0.93;0.93;;;5.10;99.90;;;;;;5000880;28;20159;-87
2023/01/09 08:52:06;;;;;;;0.82;0.82;;;5.10;99.90;;;;;;5004458;28;20389;-87
2023/01/09 08:54:37;;;;;;;1.17;1.08;;;5.10;99.90;;;;;;5002940;28;20058;-87
2023/01/09 08:57:08;;;;;;;1.10;1.10;;;5.20;99.90;;;;;;5009675;28;20045;-89
2023/01/09 08:59:36;;;;;;;1.15;1.05;;;5.20;99.90;;;;;;5027949;28;20030;-89
2023/01/09 09:02:04;;;;;;;1.35;1.27;;;5.20;99.90;;;;;;5001401;28;20069;-90
2023/01/09 09:04:31;;;;;;;3.85;0.88;;;5.30;99.90;;;;;;5031869;28;20040;-88
2023/01/09 09:06:59;;;;;;;0.95;0.95;;;5.30;99.90;;;;;;5002243;28;20038;-88
2023/01/09 09:09:27;;;;;;;1.00;1.00;;;5.40;99.90;;;;;;5018212;28;20056;-88
2023/01/09 09:11:54;;;;;;;1.08;1.08;;;5.40;99.90;;;;;;5000674;28;20048;-89
2023/01/09 09:17:13;;;;;;;1.00;1.00;;;5.40;99.90;;;;;;4970140;28;20057;-88
2023/01/09 09:19:44;;;;;;;0.70;0.70;;;5.40;99.90;;;;;;5013928;28;20041;-94
2023/01/09 09:22:12;;;;;;;0.95;0.95;;;5.40;99.90;;;;;;4983483;28;20044;-89
2023/01/09 09:24:40;;;;;;;4.22;0.98;;;5.40;99.90;;;;;;5000467;28;20033;-88
2023/01/09 09:27:07;;;;;;;3.13;0.85;;;5.40;99.90;;;;;;5001238;28;20064;-87
2023/01/09 09:29:35;;;;;;;1.17;1.15;;;5.50;99.90;;;;;;4999725;28;20026;-91
2023/01/09 09:32:03;;;;;;;0.82;0.82;;;5.50;99.90;;;;;;5016037;28;20356;-90
2023/01/09 09:34:31;;;;;;;0.95;0.80;;;5.50;99.90;;;;;;4980403;28;20033;-90
2023/01/09 09:36:58;;;;;;;0.73;0.73;;;5.50;99.90;;;;;;5005533;28;20081;-89
2023/01/09 09:39:26;;;;;;;1.40;1.30;;;5.50;99.90;;;;;;5015809;28;20041;-87
2023/01/09 09:45:44;;;;;;;2.00;0.90;;;5.40;99.90;;;;;;4995522;28;20299;-91
2023/01/09 09:48:26;;;;;;;1.10;1.10;;;5.30;99.90;;;;;;5005177;28;20113;-88
2023/01/09 09:51:38;;;;;;;1.60;1.50;;;5.30;99.90;;;;;;4996506;28;20521;-91
2023/01/09 09:54:12;;;;;;;0.85;0.85;;;5.30;99.90;;;;;;4946386;28;20050;-92
2023/01/09 09:56:50;;;;;;;3.17;1.25;;;5.30;99.90;;;;;;4991140;28;20042;-91
2023/01/09 09:59:22;;;;;;;1.10;1.10;;;5.30;99.90;;;;;;4974763;28;20046;-89
2023/01/09 10:02:04;;;;;;;0.82;0.82;;;5.30;99.90;;;;;;4990008;28;20054;-89
2023/01/09 10:04:35;;;;;;;1.10;1.10;;;5.30;99.90;;;;;;4973447;28;20634;-90
2023/01/09 10:07:08;;;;;;;2.10;1.85;;;5.20;99.90;;;;;;4970518;28;20538;-92
2023/01/09 10:09:49;;;;;;;0.85;0.85;;;5.30;99.90;;;;;;4969284;28;20510;-92
2023/01/09 10:12:28;;;;;;;0.80;0.80;;;5.20;99.90;;;;;;4972371;28;20055;-89
2023/01/09 10:14:59;;;;;;;0.60;0.60;;;5.30;99.90;;;;;;4954136;28;20062;-92
2023/01/09 10:17:34;;;;;;;0.80;0.80;;;5.20;99.90;;;;;;4972434;28;20456;-91
2023/01/09 10:20:26;;;;;;;2.05;0.90;;;5.30;99.90;;;;;;4970853;28;20035;-92
2023/01/09 10:23:30;;;;;;;2.40;1.00;;;5.20;99.90;;;;;;4968493;28;20051;-90
2023/01/09 10:26:21;;;;;;;1.15;0.88;;;5.30;99.90;;;;;;4963608;28;20366;-91
2023/01/09 10:29:03;;;;;;;0.70;0.70;;;5.40;99.90;;;;;;4971501;28;20051;-90
2023/01/09 10:31:55;;;;;;;0.63;0.63;;;5.50;99.90;;;;;;4966469;28;20066;-89
2023/01/09 10:34:38;;;;;;;0.95;0.95;;;5.50;99.90;;;;;;4988320;28;20050;-89
2023/01/09 10:37:22;;;;;;;0.80;0.80;;;5.60;99.90;;;;;;4990730;28;20057;-91
2023/01/09 10:40:04;;;;;;;0.88;0.80;;;5.70;99.90;;;;;;4998906;28;20041;-91
2023/01/09 10:42:35;;;;;;;0.70;0.70;;;5.70;99.90;;;;;;4995176;28;20054;-95
2023/01/09 10:45:21;;;;;;;;;;;5.70;99.90;;;;;;4983646;28;20042;-94
2023/01/09 10:47:49;;;;;;;0.85;0.85;;;5.70;99.90;;;;;;4992672;28;19922;-89
2023/01/09 10:50:22;;;;;;;2.67;0.90;;;5.80;99.90;;;;;;5015899;28;20050;-88
2023/01/09 10:52:52;;;;;;;7.72;1.33;;;5.70;99.90;;;;;;5007812;28;20049;-90
2023/01/09 10:55:31;;;;;;;1.15;1.15;;;5.70;99.90;;;;;;4997558;28;20057;-88
2023/01/09 10:58:03;;;;;;;1.77;1.38;;;5.60;99.90;;;;;;4997878;28;20509;-89
2023/01/09 11:00:31;;;;;;;1.02;0.90;;;5.70;99.90;;;;;;5014249;28;20046;-86
2023/01/09 11:02:58;;;;;;;5.30;1.73;;;5.70;99.90;;;;;;5010233;28;20074;-89
2023/01/09 11:05:29;;;;;;;3.03;0.82;;;5.70;99.90;;;;;;4994652;28;20494;-88
2023/01/09 11:08:18;;;;;;;0.80;0.80;;;5.70;99.90;;;;;;4976527;28;20038;-89
2023/01/09 11:10:52;;;;;;;1.15;1.08;;;5.70;99.90;;;;;;4994857;28;20057;-88
2023/01/09 11:13:24;;;;;;;0.90;0.90;;;5.80;99.90;;;;;;4978602;28;20043;-88
2023/01/09 11:16:15;;;;;;;3.25;1.65;;;5.70;99.90;;;;;;4995283;28;20038;-90
2023/01/09 11:18:54;;;;;;;0.82;0.82;;;5.80;99.90;;;;;;4981924;28;20046;-90
2023/01/09 11:21:28;;;;;;;2.45;0.88;;;5.70;99.90;;;;;;4998886;28;20050;-90
2023/01/09 11:24:01;;;;;;;0.90;0.88;;;5.70;99.90;;;;;;4980687;28;20402;-91
2023/01/09 11:26:29;;;;;;;1.35;1.08;;;5.80;99.90;;;;;;5007833;28;20045;-89
2023/01/09 11:29:13;;;;;;;1.17;1.10;;;5.80;99.90;;;;;;5006107;28;20440;-88
2023/01/09 11:31:52;;;;;;;2.50;1.25;;;5.80;99.90;;;;;;5023376;28;20054;-90
2023/01/09 11:34:27;;;;;;;3.00;1.45;;;5.90;99.90;;;;;;4997426;28;20077;-90
2023/01/09 11:37:12;;;;;;;1.55;1.45;;;5.90;99.90;;;;;;5007388;28;20049;-90
2023/01/09 11:39:46;;;;;;;5.90;0.93;;;5.90;99.90;;;;;;5011829;28;20425;-90
2023/01/09 11:42:50;;;;;;;0.98;0.95;;;5.90;99.90;;;;;;4966218;28;20069;-92
2023/01/09 11:45:29;;;;;;;1.60;0.82;;;5.90;99.90;;;;;;4972522;28;20058;-90
2023/01/09 11:47:57;;;;;;;3.05;1.15;;;5.90;99.90;;;;;;4999660;28;20046;-90
2023/01/09 11:50:27;;;;;;;3.58;1.13;;;6.00;99.90;;;;;;4982862;28;20437;-89
2023/01/09 11:53:16;;;;;;;1.63;1.52;;;6.00;99.90;;;;;;4998665;28;20061;-87
2023/01/09 11:55:46;;;;;;;3.08;2.55;;;6.10;99.90;;;;;;4997325;28;20477;-88
2023/01/09 11:58:19;;;;;;;1.13;1.13;;;6.10;99.90;;;;;;4994032;28;20055;-86
2023/01/09 12:01:13;;;;;;;2.88;1.17;;;6.10;99.90;;;;;;4980584;28;20054;-91
2023/01/09 12:04:05;;;;;;;0.90;0.90;;;6.10;99.90;;;;;;4978676;28;20065;-91
2023/01/09 12:06:52;;;;;;;1.40;1.08;;;6.10;99.90;;;;;;4959858;28;20051;-88
2023/01/09 12:09:24;;;;;;;6.63;2.05;;;6.10;99.90;;;;;;4972317;28;20062;-90
2023/01/09 12:12:43;;;;;;;1.27;0.93;;;6.10;99.90;;;;;;4992088;28;20051;-92
2023/01/09 12:15:48;;;;;;;3.42;1.10;;;6.00;99.90;;;;;;4961754;28;20058;-90
2023/01/09 12:18:34;;;;;;;3.92;0.80;;;6.10;99.90;;;;;;4959035;28;20055;-89
2023/01/09 12:21:34;;;;;;;6.13;1.10;;;6.10;99.90;;;;;;4976136;28;20046;-91
2023/01/09 12:24:37;;;;;;;1.95;0.70;;;6.10;99.90;;;;;;4977074;28;20054;-92
2023/01/09 12:27:22;;;;;;;1.80;0.93;;;6.10;99.90;;;;;;4979238;28;20054;-91
2023/01/09 12:30:22;;;;;;;0.65;0.65;;;6.10;99.90;;;;;;4988010;28;20046;-93
2023/01/09 12:33:03;;;;;;;0.98;0.88;;;6.10;99.90;;;;;;4981116;28;20062;-94
2023/01/09 12:35:42;;;;;;;1.03;0.80;;;6.10;99.90;;;;;;4968396;28;20062;-93
2023/01/09 12:38:28;;;;;;;1.35;1.25;;;6.10;99.90;;;;;;4961679;28;20066;-91
2023/01/09 12:41:23;;;;;;;2.13;1.02;;;6.20;99.90;;;;;;4970727;28;20035;-92
2023/01/09 12:44:13;;;;;;;1.20;1.10;;;6.10;99.90;;;;;;4973109;28;20043;-89
2023/01/09 12:47:01;;;;;;;2.00;0.80;;;6.10;99.90;;;;;;4977327;28;20054;-90
2023/01/09 12:49:37;;;;;;;0.85;0.73;;;6.20;99.90;;;;;;4975421;28;20056;-91
2023/01/09 12:52:13;;;;;;;2.83;0.77;;;6.20;99.90;;;;;;4981245;28;20042;-90
2023/01/09 12:54:57;;;;;;;1.00;1.00;;;6.20;99.90;;;;;;4992479;28;20513;-91
2023/01/09 12:57:47;;;;;;;1.17;1.17;;;6.30;99.90;;;;;;4972845;28;20050;-90
2023/01/09 13:00:28;;;;;;;1.02;0.85;;;6.20;99.90;;;;;;4979720;28;20059;-93
2023/01/09 13:03:22;;;;;;;1.25;1.17;;;6.30;99.90;;;;;;4970799;28;20046;-90
2023/01/09 13:05:52;;;;;;;0.63;0.63;;;6.30;99.90;;;;;;4982920;28;20073;-90
2023/01/09 13:08:37;;;;;;;1.65;1.48;;;6.30;99.90;;;;;;4992257;28;20383;-90
2023/01/09 13:11:16;;;;;;;1.45;1.35;;;6.30;99.90;;;;;;4975588;28;20516;-91
2023/01/09 13:13:57;;;;;;;0.60;0.60;;;6.30;99.90;;;;;;4963615;28;20078;-90
2023/01/09 13:16:32;;;;;;;0.80;0.80;;;6.40;99.90;;;;;;4976862;28;20042;-87
2023/01/09 13:19:11;;;;;;;1.27;1.00;;;6.40;99.90;;;;;;4988859;28;20275;-91
2023/01/09 13:21:41;;;;;;;0.75;0.70;;;6.40;99.90;;;;;;4984591;28;20053;-94
2023/01/09 13:24:27;;;;;;;0.77;0.77;;;6.40;99.90;;;;;;4970888;28;20051;-90
2023/01/09 13:27:00;;;;;;;1.45;1.35;;;6.30;99.90;;;;;;4965688;28;20051;-90
2023/01/09 13:29:36;;;;;;;4.22;1.17;;;6.30;99.90;;;;;;4983375;28;20049;-90
2023/01/09 13:32:19;;;;;;;0.60;0.60;;;6.20;99.90;;;;;;4988419;28;20064;-88
2023/01/09 13:34:50;;;;;;;0.90;0.90;;;6.20;99.90;;;;;;5023750;28;20053;-90
2023/01/09 13:37:24;;;;;;;;;;;6.20;99.90;;;;;;5015979;28;20064;-91
2023/01/09 13:40:23;;;;;;;3.10;0.70;;;6.20;99.90;;;;;;5019812;28;19925;-90
2023/01/09 13:43:04;;;;;;;2.58;0.60;;;6.20;99.90;;;;;;4992437;28;20069;-90
2023/01/09 13:45:34;;;;;;;0.80;0.80;;;6.20;99.90;;;;;;4991658;28;20440;-91
2023/01/09 13:48:10;;;;;;;3.88;0.98;;;6.10;99.90;;;;;;4991004;28;20045;-93